createdAt,value
2018-07-11T00:00:17.056Z,0.00
2018-07-11T00:01:16.993Z,0.00
2018-07-11T00:02:16.868Z,0.00
2018-07-11T00:03:16.776Z,0.00
2018-07-11T00:04:16.682Z,0.00
2018-07-11T00:05:16.592Z,0.00
2018-07-11T00:06:16.531Z,0.00
2018-07-11T00:07:16.418Z,0.00
2018-07-11T00:08:16.311Z,0.00
2018-07-11T00:09:16.220Z,0.00
2018-07-11T00:10:16.131Z,0.00
2018-07-11T00:11:16.071Z,0.00
2018-07-11T00:12:15.943Z,0.00
2018-07-11T00:13:15.846Z,0.00
2018-07-11T00:14:15.754Z,0.00
2018-07-11T00:15:15.658Z,0.00
2018-07-11T00:16:15.599Z,0.00
2018-07-11T00:17:15.493Z,0.00
2018-07-11T00:18:15.381Z,0.00
2018-07-11T00:19:15.289Z,0.00
2018-07-11T00:20:15.198Z,0.00
2018-07-11T00:21:15.135Z,0.00
2018-07-11T00:22:15.013Z,0.00
2018-07-11T00:23:14.919Z,0.00
2018-07-11T00:24:14.825Z,0.00
2018-07-11T00:25:14.729Z,0.00
2018-07-11T00:26:14.668Z,0.00
2018-07-11T00:27:14.564Z,0.00
2018-07-11T00:28:14.452Z,0.00
2018-07-11T00:29:14.363Z,0.00
2018-07-11T00:30:14.265Z,0.00
2018-07-11T00:31:14.203Z,0.00
2018-07-11T00:32:14.078Z,0.00
2018-07-11T00:33:13.983Z,0.00
2018-07-11T00:34:13.891Z,0.00
2018-07-11T00:35:13.805Z,0.00
2018-07-11T00:36:13.739Z,0.00
2018-07-11T00:37:13.667Z,0.00
2018-07-11T00:38:13.520Z,0.00
2018-07-11T00:39:13.427Z,0.00
2018-07-11T00:40:13.336Z,0.00
2018-07-11T00:41:13.273Z,0.00
2018-07-11T00:42:13.151Z,0.00
2018-07-11T00:43:13.063Z,0.00
2018-07-11T00:44:12.965Z,0.00
2018-07-11T00:45:12.869Z,0.00
2018-07-11T00:46:12.810Z,0.00
2018-07-11T00:47:12.683Z,0.00
2018-07-11T00:48:12.591Z,0.00
2018-07-11T00:49:12.497Z,0.00
2018-07-11T00:50:12.405Z,0.00
2018-07-11T00:51:12.344Z,0.00
2018-07-11T00:52:12.218Z,0.00
2018-07-11T00:53:12.125Z,0.00
2018-07-11T00:54:12.030Z,0.00
2018-07-11T00:55:11.937Z,0.00
2018-07-11T00:56:11.882Z,0.00
2018-07-11T00:57:11.757Z,0.00
2018-07-11T00:58:11.660Z,0.00
2018-07-11T00:59:11.566Z,0.00
2018-07-11T01:00:11.477Z,0.00
2018-07-11T01:01:11.387Z,0.00
2018-07-11T01:02:11.319Z,0.00
2018-07-11T01:03:11.195Z,0.00
2018-07-11T01:04:11.111Z,0.00
2018-07-11T01:05:11.009Z,0.00
2018-07-11T01:06:10.951Z,0.00
2018-07-11T01:07:10.825Z,0.00
2018-07-11T01:08:10.736Z,0.00
2018-07-11T01:09:10.634Z,0.00
2018-07-11T01:10:10.544Z,0.00
2018-07-11T01:11:10.454Z,0.00
2018-07-11T01:12:10.388Z,0.00
2018-07-11T01:13:10.264Z,0.00
2018-07-11T01:14:10.188Z,0.00
2018-07-11T01:15:10.080Z,0.00
2018-07-11T01:16:09.990Z,0.00
2018-07-11T01:17:10.325Z,0.00
2018-07-11T01:18:09.802Z,0.00
2018-07-11T01:19:09.708Z,0.00
2018-07-11T01:20:09.614Z,0.00
2018-07-11T01:21:09.521Z,0.00
2018-07-11T01:22:09.555Z,0.00
2018-07-11T01:23:09.336Z,0.00
2018-07-11T01:24:09.239Z,0.00
2018-07-11T01:25:09.149Z,0.00
2018-07-11T01:26:09.057Z,0.00
2018-07-11T01:27:08.998Z,0.00
2018-07-11T01:28:08.870Z,0.00
2018-07-11T01:29:08.872Z,0.00
2018-07-11T01:30:08.684Z,0.00
2018-07-11T01:31:08.592Z,0.00
2018-07-11T01:32:08.530Z,0.00
2018-07-11T01:33:08.405Z,0.00
2018-07-11T01:34:08.314Z,0.00
2018-07-11T01:35:08.219Z,0.00
2018-07-11T01:36:08.126Z,0.00
2018-07-11T01:37:08.071Z,0.00
2018-07-11T01:38:07.943Z,0.00
2018-07-11T01:39:07.845Z,0.00
2018-07-11T01:40:07.756Z,0.00
2018-07-11T01:41:07.665Z,0.00
2018-07-11T01:42:07.601Z,0.00
2018-07-11T01:43:07.571Z,0.00
2018-07-11T01:44:07.396Z,0.00
2018-07-11T01:45:07.291Z,0.00
2018-07-11T01:46:07.199Z,0.00
2018-07-11T01:47:07.140Z,0.00
2018-07-11T01:48:07.013Z,0.00
2018-07-11T01:49:06.919Z,0.00
2018-07-11T01:50:06.927Z,0.00
2018-07-11T01:51:06.735Z,0.00
2018-07-11T01:52:06.671Z,0.00
2018-07-11T01:53:06.550Z,0.00
2018-07-11T01:54:06.458Z,0.00
2018-07-11T01:55:06.364Z,0.00
2018-07-11T01:56:06.281Z,0.00
2018-07-11T01:57:06.307Z,0.00
2018-07-11T01:58:06.087Z,0.00
2018-07-11T01:59:05.993Z,0.00
2018-07-11T02:00:05.901Z,0.00
2018-07-11T02:01:05.807Z,0.00
2018-07-11T02:02:05.749Z,0.00
2018-07-11T02:03:05.625Z,0.00
2018-07-11T02:04:05.622Z,0.00
2018-07-11T02:05:05.437Z,0.00
2018-07-11T02:06:05.344Z,0.00
2018-07-11T02:07:05.283Z,0.00
2018-07-11T02:08:05.160Z,0.00
2018-07-11T02:09:05.067Z,0.00
2018-07-11T02:10:04.975Z,0.00
2018-07-11T02:11:04.979Z,0.00
2018-07-11T02:12:04.827Z,0.00
2018-07-11T02:13:04.697Z,0.00
2018-07-11T02:14:04.608Z,0.00
2018-07-11T02:15:04.512Z,0.00
2018-07-11T02:16:04.421Z,0.00
2018-07-11T02:17:04.357Z,0.00
2018-07-11T02:18:04.333Z,0.00
2018-07-11T02:19:04.141Z,0.00
2018-07-11T02:20:04.051Z,0.00
2018-07-11T02:21:03.957Z,0.00
2018-07-11T02:22:03.898Z,0.00
2018-07-11T02:23:03.774Z,0.00
2018-07-11T02:24:03.683Z,0.00
2018-07-11T02:25:03.693Z,0.00
2018-07-11T02:26:03.497Z,0.00
2018-07-11T02:27:03.433Z,0.00
2018-07-11T02:28:03.312Z,0.00
2018-07-11T02:29:03.220Z,0.00
2018-07-11T02:30:03.125Z,0.00
2018-07-11T02:31:03.033Z,0.00
2018-07-11T02:32:03.068Z,0.00
2018-07-11T02:33:02.847Z,0.00
2018-07-11T02:34:02.755Z,0.00
2018-07-11T02:35:02.663Z,0.00
2018-07-11T02:36:02.571Z,0.00
2018-07-11T02:37:02.510Z,0.00
2018-07-11T02:38:02.397Z,0.00
2018-07-11T02:39:02.388Z,4.00
2018-07-11T02:40:02.202Z,4.00
2018-07-11T02:41:02.109Z,4.00
2018-07-11T02:42:02.026Z,0.00
2018-07-11T02:43:01.955Z,4.00
2018-07-11T02:44:01.835Z,4.00
2018-07-11T02:45:01.740Z,4.00
2018-07-11T02:46:01.751Z,4.00
2018-07-11T02:47:01.557Z,8.00
2018-07-11T02:48:01.506Z,8.00
2018-07-11T02:49:01.374Z,8.00
2018-07-11T02:50:01.278Z,12.00
2018-07-11T02:51:01.184Z,12.00
2018-07-11T02:52:01.186Z,12.00
2018-07-11T02:53:01.032Z,16.00
2018-07-11T02:54:00.915Z,20.00
2018-07-11T02:55:00.821Z,24.00
2018-07-11T02:56:00.723Z,24.00
2018-07-11T02:57:00.631Z,28.00
2018-07-11T02:58:00.570Z,32.00
2018-07-11T02:59:00.448Z,36.00
2018-07-11T03:00:00.355Z,40.00
2018-07-11T03:01:00.264Z,44.00
2018-07-11T03:02:00.171Z,52.00
2018-07-11T03:03:00.109Z,56.00
2018-07-11T03:03:59.988Z,60.00
2018-07-11T03:04:59.896Z,68.00
2018-07-11T03:05:59.801Z,76.00
2018-07-11T03:06:59.711Z,80.00
2018-07-11T03:07:59.649Z,88.00
2018-07-11T03:08:59.526Z,96.00
2018-07-11T03:09:59.430Z,108.00
2018-07-11T03:10:59.340Z,116.00
2018-07-11T03:11:59.249Z,124.00
2018-07-11T03:12:59.187Z,140.00
2018-07-11T03:13:59.065Z,148.00
2018-07-11T03:14:58.973Z,160.00
2018-07-11T03:15:58.886Z,172.00
2018-07-11T03:16:58.785Z,188.00
2018-07-11T03:17:58.728Z,200.00
2018-07-11T03:18:58.603Z,212.00
2018-07-11T03:19:58.510Z,228.00
2018-07-11T03:20:58.422Z,244.00
2018-07-11T03:21:58.329Z,260.00
2018-07-11T03:22:58.266Z,276.00
2018-07-11T03:23:58.142Z,292.00
2018-07-11T03:24:58.050Z,316.00
2018-07-11T03:25:57.958Z,336.00
2018-07-11T03:26:57.865Z,360.00
2018-07-11T03:27:57.803Z,384.00
2018-07-11T03:28:57.681Z,408.00
2018-07-11T03:29:57.591Z,432.00
2018-07-11T03:30:57.496Z,464.00
2018-07-11T03:31:57.411Z,492.00
2018-07-11T03:32:57.345Z,524.00
2018-07-11T03:33:57.224Z,560.00
2018-07-11T03:34:57.132Z,588.00
2018-07-11T03:35:57.048Z,624.00
2018-07-11T03:36:56.944Z,668.00
2018-07-11T03:37:56.885Z,708.00
2018-07-11T03:38:56.761Z,756.00
2018-07-11T03:39:56.668Z,808.00
2018-07-11T03:40:56.578Z,864.00
2018-07-11T03:41:56.486Z,924.00
2018-07-11T03:42:56.427Z,984.00
2018-07-11T03:43:56.301Z,1052.00
2018-07-11T03:44:56.210Z,1120.00
2018-07-11T03:45:56.120Z,1188.00
2018-07-11T03:46:56.041Z,1260.00
2018-07-11T03:47:55.966Z,1332.00
2018-07-11T03:48:55.842Z,1408.00
2018-07-11T03:49:55.752Z,1484.00
2018-07-11T03:50:55.657Z,1548.00
2018-07-11T03:51:55.568Z,1620.00
2018-07-11T03:52:55.507Z,1696.00
2018-07-11T03:53:55.384Z,1768.00
2018-07-11T03:54:55.291Z,1856.00
2018-07-11T03:55:55.208Z,1948.00
2018-07-11T03:56:55.107Z,2032.00
2018-07-11T03:57:55.046Z,2108.00
2018-07-11T03:58:54.925Z,2176.00
2018-07-11T03:59:54.834Z,2236.00
2018-07-11T04:00:54.741Z,2308.00
2018-07-11T04:01:54.664Z,2376.00
2018-07-11T04:02:54.557Z,2448.00
2018-07-11T04:03:54.494Z,2512.00
2018-07-11T04:04:54.385Z,2572.00
2018-07-11T04:05:54.282Z,2636.00
2018-07-11T04:06:54.189Z,2692.00
2018-07-11T04:07:54.145Z,2744.00
2018-07-11T04:08:54.100Z,2800.00
2018-07-11T04:09:53.913Z,2856.00
2018-07-11T04:10:53.825Z,2928.00
2018-07-11T04:11:53.739Z,2980.00
2018-07-11T04:12:53.642Z,2968.00
2018-07-11T04:13:53.580Z,2848.00
2018-07-11T04:14:53.459Z,2704.00
2018-07-11T04:15:53.458Z,2564.00
2018-07-11T04:16:53.275Z,2436.00
2018-07-11T04:17:53.199Z,2320.00
2018-07-11T04:18:53.120Z,2236.00
2018-07-11T04:19:52.998Z,2156.00
2018-07-11T04:20:52.905Z,2088.00
2018-07-11T04:21:52.814Z,2036.00
2018-07-11T04:22:52.726Z,2004.00
2018-07-11T04:23:52.665Z,1988.00
2018-07-11T04:24:52.543Z,1948.00
2018-07-11T04:25:52.449Z,1888.00
2018-07-11T04:26:52.358Z,1828.00
2018-07-11T04:27:52.792Z,1808.00
2018-07-11T04:28:52.294Z,1820.00
2018-07-11T04:29:52.177Z,1840.00
2018-07-11T04:30:51.992Z,1900.00
2018-07-11T04:31:51.900Z,1988.00
2018-07-11T04:32:51.808Z,2100.00
2018-07-11T04:33:51.748Z,2188.00
2018-07-11T04:34:51.626Z,2300.00
2018-07-11T04:35:51.534Z,2424.00
2018-07-11T04:36:51.533Z,2508.00
2018-07-11T04:37:51.352Z,2528.00
2018-07-11T04:38:51.291Z,2552.00
2018-07-11T04:39:51.168Z,2564.00
2018-07-11T04:40:51.076Z,2572.00
2018-07-11T04:41:50.986Z,2588.00
2018-07-11T04:42:50.890Z,2596.00
2018-07-11T04:43:50.929Z,2600.00
2018-07-11T04:44:50.711Z,2712.00
2018-07-11T04:45:50.619Z,2948.00
2018-07-11T04:46:50.531Z,3176.00
2018-07-11T04:47:50.436Z,3328.00
2018-07-11T04:48:50.386Z,3380.00
2018-07-11T04:49:50.251Z,3376.00
2018-07-11T04:50:50.253Z,3312.00
2018-07-11T04:51:50.072Z,3244.00
2018-07-11T04:52:49.980Z,3212.00
2018-07-11T04:53:49.919Z,3176.00
2018-07-11T04:54:49.796Z,3148.00
2018-07-11T04:55:49.703Z,3128.00
2018-07-11T04:56:49.613Z,3124.00
2018-07-11T04:57:49.612Z,3128.00
2018-07-11T04:58:49.470Z,3116.00
2018-07-11T04:59:49.336Z,3144.00
2018-07-11T05:00:49.244Z,3260.00
2018-07-11T05:01:49.156Z,3308.00
2018-07-11T05:02:49.063Z,3392.00
2018-07-11T05:03:49.003Z,3420.00
2018-07-11T05:04:49.018Z,3504.00
2018-07-11T05:05:48.790Z,3644.00
2018-07-11T05:06:48.697Z,3740.00
2018-07-11T05:07:48.606Z,3812.00
2018-07-11T05:08:48.548Z,3920.00
2018-07-11T05:09:48.439Z,3836.00
2018-07-11T05:10:48.358Z,3764.00
2018-07-11T05:11:48.333Z,3672.00
2018-07-11T05:12:48.150Z,3576.00
2018-07-11T05:13:48.087Z,3528.00
2018-07-11T05:14:47.967Z,3492.00
2018-07-11T05:15:47.877Z,3464.00
2018-07-11T05:16:47.781Z,3440.00
2018-07-11T05:17:47.694Z,3416.00
2018-07-11T05:18:47.727Z,3400.00
2018-07-11T05:19:47.518Z,3408.00
2018-07-11T05:20:47.419Z,3420.00
2018-07-11T05:21:47.326Z,3452.00
2018-07-11T05:22:47.235Z,3532.00
2018-07-11T05:23:47.174Z,3656.00
2018-07-11T05:24:47.177Z,3796.00
2018-07-11T05:25:46.968Z,3940.00
2018-07-11T05:26:46.873Z,4104.00
2018-07-11T05:27:46.847Z,4252.00
2018-07-11T05:28:46.720Z,4400.00
2018-07-11T05:29:46.597Z,4540.00
2018-07-11T05:30:46.507Z,4672.00
2018-07-11T05:31:46.415Z,4788.00
2018-07-11T05:32:46.322Z,4892.00
2018-07-11T05:33:46.266Z,4964.00
2018-07-11T05:34:46.144Z,5004.00
2018-07-11T05:35:46.050Z,5068.00
2018-07-11T05:36:45.963Z,5140.00
2018-07-11T05:37:45.868Z,5220.00
2018-07-11T05:38:45.786Z,5304.00
2018-07-11T05:39:45.717Z,5384.00
2018-07-11T05:40:45.598Z,5456.00
2018-07-11T05:41:45.504Z,5528.00
2018-07-11T05:42:45.413Z,5592.00
2018-07-11T05:43:45.324Z,5684.00
2018-07-11T05:44:45.265Z,5796.00
2018-07-11T05:45:45.140Z,5916.00
2018-07-11T05:46:45.052Z,6064.00
2018-07-11T05:47:44.959Z,6192.00
2018-07-11T05:48:44.868Z,6340.00
2018-07-11T05:49:44.809Z,6508.00
2018-07-11T05:50:44.708Z,6676.00
2018-07-11T05:51:44.595Z,6820.00
2018-07-11T05:52:44.506Z,6956.00
2018-07-11T05:53:44.414Z,7076.00
2018-07-11T05:54:44.353Z,7172.00
2018-07-11T05:55:44.238Z,7280.00
2018-07-11T05:56:44.139Z,7400.00
2018-07-11T05:57:44.047Z,7532.00
2018-07-11T05:58:43.959Z,7652.00
2018-07-11T05:59:43.901Z,7768.00
2018-07-11T06:00:43.787Z,7888.00
2018-07-11T06:01:43.689Z,7996.00
2018-07-11T06:02:43.604Z,8084.00
2018-07-11T06:03:43.508Z,8164.00
2018-07-11T06:04:43.446Z,8248.00
2018-07-11T06:05:43.326Z,8332.00
2018-07-11T06:06:43.234Z,8412.00
2018-07-11T06:07:43.147Z,8520.00
2018-07-11T06:08:43.060Z,8600.00
2018-07-11T06:09:42.999Z,8676.00
2018-07-11T06:10:42.875Z,8780.00
2018-07-11T06:11:42.781Z,8908.00
2018-07-11T06:12:42.691Z,9044.00
2018-07-11T06:13:42.684Z,9184.00
2018-07-11T06:14:42.541Z,9324.00
2018-07-11T06:15:42.419Z,9480.00
2018-07-11T06:16:42.335Z,9660.00
2018-07-11T06:17:42.251Z,9892.00
2018-07-11T06:18:42.151Z,10164.00
2018-07-11T06:19:42.089Z,10492.00
2018-07-11T06:20:41.967Z,10844.00
2018-07-11T06:21:41.877Z,11212.00
2018-07-11T06:22:41.786Z,11624.00
2018-07-11T06:23:41.696Z,12052.00
2018-07-11T06:24:41.637Z,12484.00
2018-07-11T06:25:41.516Z,12952.00
2018-07-11T06:26:41.424Z,13424.00
2018-07-11T06:27:41.338Z,13912.00
2018-07-11T06:28:41.245Z,14388.00
2018-07-11T06:29:41.191Z,14844.00
2018-07-11T06:30:41.067Z,15292.00
2018-07-11T06:31:40.976Z,15732.00
2018-07-11T06:32:40.901Z,16148.00
2018-07-11T06:33:40.801Z,16588.00
2018-07-11T06:34:40.736Z,17184.00
2018-07-11T06:35:40.613Z,17632.00
2018-07-11T06:36:40.528Z,18080.00
2018-07-11T06:37:40.433Z,18464.00
2018-07-11T06:38:40.344Z,18944.00
2018-07-11T06:39:40.292Z,19328.00
2018-07-11T06:40:40.163Z,19744.00
2018-07-11T06:41:40.172Z,20128.00
2018-07-11T06:42:39.985Z,20544.00
2018-07-11T06:43:39.900Z,20864.00
2018-07-11T06:44:39.847Z,20960.00
2018-07-11T06:45:39.717Z,20864.00
2018-07-11T06:46:39.626Z,20480.00
2018-07-11T06:47:39.537Z,20320.00
2018-07-11T06:48:39.446Z,20064.00
2018-07-11T06:49:39.391Z,19456.00
2018-07-11T06:50:39.268Z,18880.00
2018-07-11T06:51:39.180Z,18176.00
2018-07-11T06:52:39.093Z,17536.00
2018-07-11T06:53:39.003Z,17248.00
2018-07-11T06:54:38.945Z,17088.00
2018-07-11T06:55:38.909Z,16992.00
2018-07-11T06:56:38.732Z,16712.00
2018-07-11T06:57:38.673Z,16644.00
2018-07-11T06:58:38.556Z,16616.00
2018-07-11T06:59:38.505Z,16624.00
2018-07-11T07:00:38.378Z,16632.00
2018-07-11T07:01:38.287Z,16624.00
2018-07-11T07:02:38.296Z,16604.00
2018-07-11T07:03:38.126Z,16584.00
2018-07-11T07:04:38.050Z,16628.00
2018-07-11T07:05:37.936Z,16960.00
2018-07-11T07:06:37.843Z,17152.00
2018-07-11T07:07:37.759Z,16760.00
2018-07-11T07:08:37.668Z,17440.00
2018-07-11T07:09:37.581Z,17952.00
2018-07-11T07:10:37.524Z,17408.00
2018-07-11T07:11:37.421Z,16376.00
2018-07-11T07:12:37.313Z,15844.00
2018-07-11T07:13:37.224Z,15640.00
2018-07-11T07:14:37.135Z,15340.00
2018-07-11T07:15:37.081Z,15184.00
2018-07-11T07:16:36.973Z,15056.00
2018-07-11T07:17:36.869Z,14948.00
2018-07-11T07:18:36.782Z,14888.00
2018-07-11T07:19:36.697Z,14884.00
2018-07-11T07:20:36.636Z,14884.00
2018-07-11T07:21:36.516Z,14840.00
2018-07-11T07:22:36.452Z,14704.00
2018-07-11T07:23:36.340Z,14520.00
2018-07-11T07:24:36.253Z,14324.00
2018-07-11T07:25:36.195Z,14100.00
2018-07-11T07:26:36.073Z,13852.00
2018-07-11T07:27:35.985Z,13564.00
2018-07-11T07:28:35.901Z,13268.00
2018-07-11T07:29:35.810Z,12984.00
2018-07-11T07:30:35.748Z,12724.00
2018-07-11T07:31:35.725Z,12504.00
2018-07-11T07:32:35.542Z,12312.00
2018-07-11T07:33:35.453Z,12172.00
2018-07-11T07:34:35.370Z,12076.00
2018-07-11T07:35:35.314Z,12020.00
2018-07-11T07:36:35.192Z,11976.00
2018-07-11T07:37:35.101Z,11956.00
2018-07-11T07:38:35.104Z,11968.00
2018-07-11T07:39:34.926Z,12020.00
2018-07-11T07:40:34.867Z,12108.00
2018-07-11T07:41:34.750Z,12260.00
2018-07-11T07:42:34.660Z,12448.00
2018-07-11T07:43:34.571Z,12692.00
2018-07-11T07:44:34.479Z,12936.00
2018-07-11T07:45:34.526Z,13240.00
2018-07-11T07:46:34.301Z,13540.00
2018-07-11T07:47:34.221Z,13848.00
2018-07-11T07:48:34.126Z,14156.00
2018-07-11T07:49:34.041Z,14432.00
2018-07-11T07:50:33.981Z,14664.00
2018-07-11T07:51:33.863Z,14828.00
2018-07-11T07:52:33.873Z,15012.00
2018-07-11T07:53:33.732Z,15108.00
2018-07-11T07:54:33.603Z,15160.00
2018-07-11T07:55:33.552Z,15164.00
2018-07-11T07:56:33.429Z,15168.00
2018-07-11T07:57:33.332Z,15116.00
2018-07-11T07:58:33.244Z,15040.00
2018-07-11T07:59:33.252Z,14940.00
2018-07-11T08:00:33.139Z,14772.00
2018-07-11T08:01:32.978Z,14592.00
2018-07-11T08:02:32.892Z,13860.00
2018-07-11T08:03:32.800Z,14064.00
2018-07-11T08:04:32.712Z,13784.00
2018-07-11T08:05:32.651Z,13596.00
2018-07-11T08:06:32.629Z,13520.00
2018-07-11T08:07:32.445Z,13488.00
2018-07-11T08:08:32.361Z,13460.00
2018-07-11T08:09:32.268Z,13372.00
2018-07-11T08:10:32.212Z,13276.00
2018-07-11T08:11:32.091Z,13168.00
2018-07-11T08:12:32.061Z,13068.00
2018-07-11T08:13:31.913Z,12992.00
2018-07-11T08:14:31.847Z,12884.00
2018-07-11T08:15:31.764Z,12872.00
2018-07-11T08:16:31.648Z,12804.00
2018-07-11T08:17:31.560Z,12776.00
2018-07-11T08:18:31.486Z,12800.00
2018-07-11T08:19:31.381Z,12836.00
2018-07-11T08:20:31.322Z,12860.00
2018-07-11T08:21:31.226Z,12844.00
2018-07-11T08:22:31.114Z,12792.00
2018-07-11T08:23:31.026Z,12728.00
2018-07-11T08:24:30.936Z,12624.00
2018-07-11T08:25:30.879Z,12512.00
2018-07-11T08:26:30.755Z,12412.00
2018-07-11T08:27:30.773Z,12348.00
2018-07-11T08:28:30.580Z,12508.00
2018-07-11T08:29:30.491Z,12260.00
2018-07-11T08:30:30.434Z,12128.00
2018-07-11T08:31:30.313Z,11936.00
2018-07-11T08:32:30.223Z,11632.00
2018-07-11T08:33:30.135Z,11092.00
2018-07-11T08:34:30.048Z,10500.00
2018-07-11T08:35:29.992Z,10376.00
2018-07-11T08:36:29.867Z,10584.00
2018-07-11T08:37:29.777Z,10632.00
2018-07-11T08:38:29.691Z,10460.00
2018-07-11T08:39:29.604Z,10208.00
2018-07-11T08:40:29.511Z,9928.00
2018-07-11T08:41:29.458Z,9944.00
2018-07-11T08:42:29.331Z,9904.00
2018-07-11T08:43:29.244Z,9944.00
2018-07-11T08:44:29.152Z,9864.00
2018-07-11T08:45:29.064Z,9884.00
2018-07-11T08:46:29.012Z,10008.00
2018-07-11T08:47:28.884Z,9812.00
2018-07-11T08:48:28.796Z,9568.00
2018-07-11T08:49:28.711Z,9408.00
2018-07-11T08:50:28.635Z,9664.00
2018-07-11T08:51:28.562Z,10144.00
2018-07-11T08:52:28.437Z,10576.00
2018-07-11T08:53:28.349Z,10920.00
2018-07-11T08:54:28.260Z,11116.00
2018-07-11T08:55:28.174Z,11292.00
2018-07-11T08:56:28.114Z,11400.00
2018-07-11T08:57:27.992Z,11484.00
2018-07-11T08:58:27.900Z,11252.00
2018-07-11T08:59:27.813Z,10944.00
2018-07-11T09:00:27.743Z,11304.00
2018-07-11T09:01:27.665Z,11492.00
2018-07-11T09:02:27.545Z,11684.00
2018-07-11T09:03:27.453Z,11828.00
2018-07-11T09:04:27.364Z,11596.00
2018-07-11T09:05:27.276Z,11200.00
2018-07-11T09:06:27.218Z,11516.00
2018-07-11T09:07:27.096Z,11848.00
2018-07-11T09:08:27.006Z,12060.00
2018-07-11T09:09:26.918Z,12124.00
2018-07-11T09:10:26.876Z,12360.00
2018-07-11T09:11:26.768Z,12484.00
2018-07-11T09:12:26.647Z,12568.00
2018-07-11T09:13:26.559Z,12744.00
2018-07-11T09:14:26.468Z,12984.00
2018-07-11T09:15:26.380Z,13304.00
2018-07-11T09:16:26.319Z,13728.00
2018-07-11T09:17:26.201Z,14068.00
2018-07-11T09:18:26.107Z,14572.00
2018-07-11T09:19:26.020Z,15136.00
2018-07-11T09:20:25.932Z,15716.00
2018-07-11T09:21:25.872Z,16348.00
2018-07-11T09:22:25.755Z,16900.00
2018-07-11T09:23:25.660Z,17632.00
2018-07-11T09:24:25.637Z,18016.00
2018-07-11T09:25:25.485Z,18304.00
2018-07-11T09:26:25.425Z,18528.00
2018-07-11T09:27:25.305Z,18784.00
2018-07-11T09:28:25.212Z,18880.00
2018-07-11T09:29:25.220Z,19008.00
2018-07-11T09:30:25.085Z,19264.00
2018-07-11T09:31:24.978Z,19584.00
2018-07-11T09:32:24.856Z,20032.00
2018-07-11T09:33:24.763Z,20480.00
2018-07-11T09:34:24.676Z,20960.00
2018-07-11T09:35:24.588Z,21376.00
2018-07-11T09:36:24.526Z,21696.00
2018-07-11T09:37:24.407Z,21888.00
2018-07-11T09:38:24.318Z,21728.00
2018-07-11T09:39:24.230Z,21632.00
2018-07-11T09:40:24.141Z,21568.00
2018-07-11T09:41:24.083Z,21696.00
2018-07-11T09:42:23.962Z,21824.00
2018-07-11T09:43:23.981Z,22016.00
2018-07-11T09:44:23.782Z,22400.00
2018-07-11T09:45:23.721Z,22848.00
2018-07-11T09:46:23.636Z,23168.00
2018-07-11T09:47:23.518Z,23296.00
2018-07-11T09:48:23.428Z,23104.00
2018-07-11T09:49:23.337Z,22592.00
2018-07-11T09:50:23.344Z,21472.00
2018-07-11T09:51:23.190Z,20192.00
2018-07-11T09:52:23.067Z,18944.00
2018-07-11T09:53:22.976Z,17952.00
2018-07-11T09:54:22.889Z,17312.00
2018-07-11T09:55:22.799Z,16576.00
2018-07-11T09:56:22.744Z,16208.00
2018-07-11T09:57:22.713Z,15888.00
2018-07-11T09:58:22.530Z,15656.00
2018-07-11T09:59:22.441Z,15404.00
2018-07-11T10:00:22.356Z,15224.00
2018-07-11T10:01:22.294Z,15148.00
2018-07-11T10:02:22.171Z,15176.00
2018-07-11T10:03:22.090Z,15240.00
2018-07-11T10:04:22.094Z,15540.00
2018-07-11T10:05:21.902Z,15860.00
2018-07-11T10:06:21.814Z,16224.00
2018-07-11T10:07:21.759Z,16548.00
2018-07-11T10:08:21.633Z,16896.00
2018-07-11T10:09:21.542Z,17696.00
2018-07-11T10:10:21.453Z,18144.00
2018-07-11T10:11:21.462Z,18688.00
2018-07-11T10:12:21.397Z,19360.00
2018-07-11T10:13:21.184Z,19872.00
2018-07-11T10:14:21.094Z,20032.00
2018-07-11T10:15:21.004Z,20640.00
2018-07-11T10:16:20.916Z,20736.00
2018-07-11T10:17:20.855Z,20864.00
2018-07-11T10:18:20.835Z,20512.00
2018-07-11T10:19:20.646Z,20544.00
2018-07-11T10:20:20.556Z,20832.00
2018-07-11T10:21:20.466Z,20672.00
2018-07-11T10:22:20.407Z,20448.00
2018-07-11T10:23:20.285Z,20352.00
2018-07-11T10:24:20.211Z,20128.00
2018-07-11T10:25:20.213Z,19936.00
2018-07-11T10:26:20.020Z,19776.00
2018-07-11T10:27:19.958Z,19552.00
2018-07-11T10:28:19.841Z,19328.00
2018-07-11T10:29:19.751Z,19136.00
2018-07-11T10:30:19.660Z,18816.00
2018-07-11T10:31:19.571Z,18464.00
2018-07-11T10:32:19.613Z,18144.00
2018-07-11T10:33:19.396Z,17760.00
2018-07-11T10:34:19.313Z,17440.00
2018-07-11T10:35:19.215Z,17248.00
2018-07-11T10:36:19.128Z,16992.00
2018-07-11T10:37:19.068Z,16644.00
2018-07-11T10:38:18.947Z,16528.00
2018-07-11T10:39:18.959Z,16476.00
2018-07-11T10:40:18.767Z,16596.00
2018-07-11T10:41:18.680Z,17056.00
2018-07-11T10:42:18.621Z,17440.00
2018-07-11T10:43:18.502Z,17920.00
2018-07-11T10:44:18.411Z,18432.00
2018-07-11T10:45:18.328Z,18976.00
2018-07-11T10:46:18.350Z,19424.00
2018-07-11T10:47:18.182Z,19808.00
2018-07-11T10:48:18.054Z,19776.00
2018-07-11T10:49:17.967Z,19904.00
2018-07-11T10:50:17.879Z,20448.00
2018-07-11T10:51:17.790Z,21312.00
2018-07-11T10:52:17.732Z,22336.00
2018-07-11T10:53:17.610Z,23360.00
2018-07-11T10:54:17.520Z,25216.00
2018-07-11T10:55:17.436Z,27392.00
2018-07-11T10:56:17.340Z,29760.00
2018-07-11T10:57:17.301Z,34112.00
2018-07-11T10:58:17.165Z,39200.00
2018-07-11T10:59:17.075Z,43392.00
2018-07-11T11:00:35.968Z,46112.00
2018-07-11T11:01:17.044Z,50880.00
2018-07-11T11:02:16.838Z,58592.00
2018-07-11T11:03:16.722Z,66976.00
2018-07-11T11:04:16.631Z,68608.00
2018-07-11T11:05:16.548Z,72960.00
2018-07-11T11:06:16.454Z,74624.00
2018-07-11T11:07:16.400Z,70240.00
2018-07-11T11:08:16.281Z,75296.00
2018-07-11T11:09:16.193Z,105152.00
2018-07-11T11:10:16.104Z,101856.00
2018-07-11T11:11:16.016Z,82272.00
2018-07-11T11:12:15.957Z,77120.00
2018-07-11T11:13:15.841Z,71360.00
2018-07-11T11:14:15.755Z,61632.00
2018-07-11T11:15:15.666Z,59648.00
2018-07-11T11:16:15.579Z,57152.00
2018-07-11T11:17:15.521Z,56192.00
2018-07-11T11:18:15.406Z,60608.00
2018-07-11T11:19:15.320Z,63520.00
2018-07-11T11:20:15.231Z,78272.00
2018-07-11T11:21:15.149Z,78112.00
2018-07-11T11:22:15.091Z,82496.00
2018-07-11T11:23:14.975Z,111904.00
2018-07-11T11:24:14.890Z,67648.00
2018-07-11T11:25:14.799Z,68064.00
2018-07-11T11:26:14.717Z,60928.00
2018-07-11T11:27:14.664Z,49024.00
2018-07-11T11:28:14.546Z,39136.00
2018-07-11T11:29:14.456Z,30816.00
2018-07-11T11:30:14.375Z,28256.00
2018-07-11T11:31:14.283Z,25600.00
2018-07-11T11:32:14.232Z,21856.00
2018-07-11T11:33:14.112Z,20576.00
2018-07-11T11:34:14.031Z,18752.00
2018-07-11T11:35:13.943Z,17184.00
2018-07-11T11:36:13.856Z,15696.00
2018-07-11T11:37:13.780Z,15624.00
2018-07-11T11:38:13.712Z,15432.00
2018-07-11T11:39:13.596Z,14932.00
2018-07-11T11:40:13.511Z,14416.00
2018-07-11T11:41:13.426Z,14056.00
2018-07-11T11:42:13.662Z,14168.00
2018-07-11T11:43:13.285Z,14708.00
2018-07-11T11:44:13.169Z,16040.00
2018-07-11T11:45:13.084Z,18880.00
2018-07-11T11:46:12.997Z,22240.00
2018-07-11T11:47:12.913Z,30208.00
2018-07-11T11:48:12.855Z,39424.00
2018-07-11T11:49:12.739Z,100704.00
2018-07-11T11:50:12.656Z,129632.00
2018-07-11T11:51:12.566Z,139072.00
2018-07-11T11:52:12.482Z,130784.00
2018-07-11T11:53:12.427Z,123008.00
2018-07-11T11:54:12.308Z,110400.00
2018-07-11T11:55:12.223Z,113856.00
2018-07-11T11:56:12.137Z,122272.00
2018-07-11T11:57:12.052Z,23168.00
2018-07-11T11:58:11.999Z,18624.00
2018-07-11T11:59:11.881Z,17244.00
2018-07-11T12:00:11.799Z,14892.00
2018-07-11T12:01:11.712Z,13428.00
2018-07-11T12:02:11.646Z,12772.00
2018-07-11T12:03:11.578Z,12044.00
2018-07-11T12:04:11.461Z,11956.00
2018-07-11T12:05:11.384Z,12356.00
2018-07-11T12:06:11.294Z,13288.00
2018-07-11T12:07:11.247Z,14704.00
2018-07-11T12:08:11.157Z,16500.00
2018-07-11T12:09:11.040Z,18112.00
2018-07-11T12:10:10.955Z,18560.00
2018-07-11T12:11:10.873Z,17952.00